Time;durP1;ratioP1;P1;durP2;ratioP2;P2;SDS_P1;SDS_P2;PMS_P1;PMS_P2;Temp;Humidity;BMP_temperature;BMP_pressure;BME280_temperature;BME280_humidity;BME280_pressure;Samples;Min_cycle;Max_cycle;Signal;HPM_P1;HPM_P2
2023/05/10 00:01:51;;;;;;;;;;;11.90;99.90;;;;;;5070659;28;19970;-77
2023/05/10 00:04:16;;;;;;;;;;;11.90;99.90;;;;;;5072859;28;19931;-76
2023/05/10 00:06:42;;;;;;;;;;;11.90;99.90;;;;;;5071272;28;20276;-76
2023/05/10 00:09:07;;;;;;;;;;;11.90;99.90;;;;;;5070545;28;19928;-76
2023/05/10 00:11:33;;;;;;;;;;;11.90;99.90;;;;;;5071679;28;19928;-76
2023/05/10 00:13:58;;;;;;;;;;;11.90;99.90;;;;;;5070967;28;19932;-77
2023/05/10 00:16:24;;;;;;;;;;;11.90;99.90;;;;;;5071673;28;19925;-77
2023/05/10 00:18:49;;;;;;;;;;;11.80;99.90;;;;;;5071241;28;20280;-76
2023/05/10 00:21:15;;;;;;;;;;;11.80;99.90;;;;;;5071149;28;20371;-76
2023/05/10 00:23:43;;;;;;;;;;;11.80;99.90;;;;;;5072186;28;19979;-77
2023/05/10 00:26:09;;;;;;;;;;;11.70;99.90;;;;;;5071328;28;19924;-77
2023/05/10 00:28:37;;;;;;;;;;;11.80;99.90;;;;;;5072487;28;20268;-76
2023/05/10 00:31:03;;;;;;;;;;;11.70;99.90;;;;;;5070911;28;20012;-76
2023/05/10 00:33:28;;;;;;;;;;;11.70;99.90;;;;;;5072494;28;20015;-76
2023/05/10 00:35:54;;;;;;;;;;;11.70;99.90;;;;;;5072371;28;19928;-76
2023/05/10 00:38:19;;;;;;;;;;;12.10;99.90;;;;;;5071847;28;19925;-77
2023/05/10 00:40:45;;;;;;;;;;;11.80;99.90;;;;;;5051356;28;19924;-77
2023/05/10 00:43:10;;;;;;;;;;;11.70;99.90;;;;;;5050528;28;20344;-77
2023/05/10 00:45:36;;;;;;;;;;;11.70;99.90;;;;;;5052571;28;19931;-77
2023/05/10 00:48:03;;;;;;;;;;;11.70;99.90;;;;;;5052280;28;20032;-77
2023/05/10 00:50:29;;;;;;;;;;;11.70;99.90;;;;;;5068155;28;19974;-77
2023/05/10 00:52:55;;;;;;;;;;;11.70;99.90;;;;;;5072364;28;19924;-77
2023/05/10 00:55:21;;;;;;;;;;;11.80;99.90;;;;;;5071749;28;19924;-76
2023/05/10 00:57:47;;;;;;;;;;;11.60;99.90;;;;;;5070394;28;19985;-77
2023/05/10 01:00:17;;;;;;;;;;;11.60;99.90;;;;;;5072455;28;19925;-77
2023/05/10 01:02:44;;;;;;;;;;;11.60;99.90;;;;;;5076125;28;19936;-77
2023/05/10 01:05:18;;;;;;;;;;;11.70;99.90;;;;;;5075653;28;20023;-77
2023/05/10 01:07:46;;;;;;;;;;;11.60;99.90;;;;;;5075584;28;20070;-77
2023/05/10 01:10:12;;;;;;;;;;;11.60;99.90;;;;;;5075806;28;20395;-77
2023/05/10 01:12:39;;;;;;;;;;;11.60;99.90;;;;;;5075054;28;19975;-77
2023/05/10 01:15:10;;;;;;;;;;;12.10;99.90;;;;;;5075514;28;20435;-77
2023/05/10 01:17:37;;;;;;;;;;;11.60;99.90;;;;;;5074599;28;19925;-77
2023/05/10 01:20:03;;;;;;;;;;;12.10;99.90;;;;;;5074410;28;20367;-77
2023/05/10 01:22:38;;;;;;;;;;;11.60;99.90;;;;;;5075875;28;19935;-77
2023/05/10 01:25:11;;;;;;;;;;;11.60;99.90;;;;;;5053977;28;19921;-77
2023/05/10 01:27:36;;;;;;;;;;;11.60;99.90;;;;;;5054094;28;19928;-77
2023/05/10 01:30:09;;;;;;;;;;;11.60;99.90;;;;;;5063719;28;20023;-77
2023/05/10 01:32:41;;;;;;;;;;;11.70;99.90;;;;;;5073820;28;19998;-77
2023/05/10 01:35:10;;;;;;;;;;;11.60;99.90;;;;;;5075377;28;19946;-77
2023/05/10 01:37:45;;;;;;;;;;;11.70;99.90;;;;;;5075806;28;19931;-77
2023/05/10 01:40:10;;;;;;;;;;;11.70;99.90;;;;;;5072842;28;19928;-77
2023/05/10 01:42:42;;;;;;;;;;;11.70;99.90;;;;;;5074234;28;20354;-77
2023/05/10 01:45:13;;;;;;;;;;;11.70;99.90;;;;;;5075426;28;20260;-77
2023/05/10 01:47:41;;;;;;;;;;;11.70;99.90;;;;;;5073259;28;19930;-77
2023/05/10 01:50:10;;;;;;;;;;;11.70;99.90;;;;;;5073509;28;19970;-77
2023/05/10 01:52:41;;;;;;;;;;;11.70;99.90;;;;;;5073573;28;20409;-77
2023/05/10 01:55:13;;;;;;;;;;;11.70;99.90;;;;;;5074309;28;19928;-77
2023/05/10 01:57:40;;;;;;;;;;;11.70;99.90;;;;;;5074035;28;19924;-77
2023/05/10 02:00:06;;;;;;;;;;;11.80;99.90;;;;;;5074548;28;19932;-77
2023/05/10 02:02:33;;;;;;;;;;;11.70;99.90;;;;;;5074375;28;20015;-77
2023/05/10 02:05:03;;;;;;;;;;;11.80;99.90;;;;;;5074479;28;20291;-77
2023/05/10 02:07:32;;;;;;;;;;;11.80;99.90;;;;;;5072945;28;19931;-77
2023/05/10 02:09:58;;;;;;;;;;;11.80;99.90;;;;;;5073416;28;20019;-76
2023/05/10 02:12:23;;;;;;;;;;;11.80;99.90;;;;;;5074542;28;19931;-77
2023/05/10 02:14:50;;;;;;;;;;;12.00;99.90;;;;;;5072446;28;20302;-77
2023/05/10 02:17:16;;;;;;;;;;;11.90;99.90;;;;;;5073948;28;20269;-77
2023/05/10 02:19:42;;;;;;;;;;;11.80;99.90;;;;;;5073357;28;19936;-77
2023/05/10 02:22:09;;;;;;;;;;;11.80;99.90;;;;;;5073798;28;20003;-78
2023/05/10 02:24:35;;;;;;;;;;;11.80;99.90;;;;;;5074833;28;19924;-77
2023/05/10 02:27:02;;;;;;;;;;;11.80;99.90;;;;;;5073335;28;20383;-76
2023/05/10 02:29:30;;;;;;;;;;;11.80;99.90;;;;;;5072264;28;20317;-77
2023/05/10 02:31:56;;;;;;;;;;;11.80;99.90;;;;;;5072476;28;20014;-77
2023/05/10 02:34:23;;;;;;;;;;;11.80;99.90;;;;;;5073670;28;20383;-77
2023/05/10 02:36:50;;;;;;;;;;;11.80;99.90;;;;;;5074168;28;19991;-77
2023/05/10 02:39:17;;;;;;;;;;;11.70;99.90;;;;;;5076177;28;20291;-76
2023/05/10 02:41:44;;;;;;;;;;;11.80;99.90;;;;;;5073715;28;20003;-76
2023/05/10 02:44:11;;;;;;;;;;;11.50;99.90;;;;;;5074487;28;19971;-75
2023/05/10 02:46:37;;;;;;;;;;;11.80;99.90;;;;;;5080287;28;19924;-76
2023/05/10 02:49:03;;;;;;;;;;;11.80;99.90;;;;;;5075223;28;19970;-76
2023/05/10 02:51:31;;;;;;;;;;;11.70;99.90;;;;;;5076390;28;19924;-77
2023/05/10 02:53:57;;;;;;;;;;;11.80;99.90;;;;;;5081830;28;19946;-76
2023/05/10 02:56:30;;;;;;;;;;;11.80;99.90;;;;;;5084594;28;19955;-76
2023/05/10 02:58:55;;;;;;;;;;;11.70;99.90;;;;;;5082721;28;19928;-77
2023/05/10 03:01:21;;;;;;;;;;;11.70;99.90;;;;;;5081731;28;19932;-76
2023/05/10 03:03:46;;;;;;;;;;;11.90;99.90;;;;;;5082148;28;20007;-77
2023/05/10 03:06:12;;;;;;;;;;;11.70;99.90;;;;;;5082321;28;19929;-77
2023/05/10 03:08:38;;;;;;;;;;;11.70;99.90;;;;;;5084446;28;19924;-77
2023/05/10 03:11:10;;;;;;;;;;;11.80;99.90;;;;;;5086415;28;20275;-77
2023/05/10 03:13:39;;;;;;;;;;;11.80;99.90;;;;;;5087091;28;19931;-78
2023/05/10 03:16:09;;;;;;;;;;;11.70;99.90;;;;;;5072561;28;19924;-77
2023/05/10 03:18:38;;;;;;;;;;;11.70;99.90;;;;;;5072315;28;19985;-77
2023/05/10 03:21:07;;;;;;;;;;;11.80;99.90;;;;;;5073199;28;19972;-77
2023/05/10 03:23:34;;;;;;;;;;;11.70;99.90;;;;;;5073515;28;19929;-77
2023/05/10 03:26:00;;;;;;;;;;;11.70;99.90;;;;;;5071480;28;19932;-77
2023/05/10 03:28:32;;;;;;;;;;;11.70;99.90;;;;;;5073338;28;19925;-77
2023/05/10 03:30:58;;;;;;;;;;;11.70;99.90;;;;;;5072852;28;20275;-77
2023/05/10 03:33:24;;;;;;;;;;;11.70;99.90;;;;;;5072768;28;19924;-77
2023/05/10 03:35:49;;;;;;;;;;;11.70;99.90;;;;;;5071786;28;19994;-77
2023/05/10 03:38:15;;;;;;;;;;;11.70;99.90;;;;;;5072328;28;20387;-77
2023/05/10 03:40:40;;;;;;;;;;;11.80;99.90;;;;;;5071818;28;19936;-77
2023/05/10 03:43:06;;;;;;;;;;;11.70;99.90;;;;;;5071922;28;19928;-76
2023/05/10 03:45:31;;;;;;;;;;;11.70;99.90;;;;;;5072972;28;19928;-77
2023/05/10 03:47:57;;;;;;;;;;;11.70;99.90;;;;;;5071968;28;19932;-77
2023/05/10 03:50:23;;;;;;;;;;;11.70;99.90;;;;;;5071630;28;19946;-81
2023/05/10 03:52:49;;;;;;;;;;;11.70;99.90;;;;;;5072964;28;19924;-78
2023/05/10 03:55:15;;;;;;;;;;;11.70;99.90;;;;;;5070488;28;19931;-75
2023/05/10 03:57:40;;;;;;;;;;;11.70;99.90;;;;;;5071677;28;19925;-76
2023/05/10 04:00:06;;;;;;;;;;;11.70;99.90;;;;;;5071968;28;19925;-76
2023/05/10 04:02:31;;;;;;;;;;;11.70;99.90;;;;;;5072649;28;20441;-76
2023/05/10 04:04:57;;;;;;;;;;;11.70;99.90;;;;;;5072173;28;20398;-84
2023/05/10 04:07:22;;;;;;;;;;;11.70;99.90;;;;;;5070357;28;20391;-75
2023/05/10 04:09:54;;;;;;;;;;;11.70;99.90;;;;;;5070465;28;19971;-75
2023/05/10 04:12:22;;;;;;;;;;;12.00;99.90;;;;;;5070845;28;19924;-76
2023/05/10 04:14:51;;;;;;;;;;;11.70;99.90;;;;;;5070763;28;19924;-76
2023/05/10 04:17:16;;;;;;;;;;;12.30;99.90;;;;;;5071712;28;20280;-81
2023/05/10 04:19:42;;;;;;;;;;;11.70;99.90;;;;;;5072399;28;19948;-75
2023/05/10 04:22:08;;;;;;;;;;;11.80;99.90;;;;;;5069947;28;19935;-76
2023/05/10 04:24:33;;;;;;;;;;;11.70;99.90;;;;;;5070832;28;19963;-75
2023/05/10 04:26:59;;;;;;;;;;;11.70;99.90;;;;;;5071625;28;20367;-74
2023/05/10 04:29:24;;;;;;;;;;;11.70;99.90;;;;;;5070375;28;19946;-74
2023/05/10 04:31:50;;;;;;;;;;;11.70;99.90;;;;;;5072046;28;20003;-74
2023/05/10 04:34:20;;;;;;;;;;;11.70;99.90;;;;;;5072170;28;20291;-74
2023/05/10 04:36:45;;;;;;;;;;;11.70;99.90;;;;;;5073591;28;19924;-75
2023/05/10 04:39:11;;;;;;;;;;;11.70;99.90;;;;;;5075852;28;20313;-75
2023/05/10 04:41:37;;;;;;;;;;;11.70;99.90;;;;;;5074897;28;19924;-75
2023/05/10 04:44:05;;;;;;;;;;;11.70;99.90;;;;;;5074187;28;20375;-75
2023/05/10 04:46:33;;;;;;;;;;;11.70;99.90;;;;;;5074232;28;20003;-77
2023/05/10 04:48:59;;;;;;;;;;;11.70;99.90;;;;;;5075624;28;19979;-78
2023/05/10 04:51:24;;;;;;;;;;;11.70;99.90;;;;;;5075082;28;19976;-76
2023/05/10 04:53:50;;;;;;;;;;;11.60;99.90;;;;;;5074705;28;20050;-76
2023/05/10 04:56:16;;;;;;;;;;;11.80;99.90;;;;;;5075365;28;20342;-78
2023/05/10 04:58:42;;;;;;;;;;;11.80;99.90;;;;;;5074615;28;19929;-78
2023/05/10 05:01:08;;;;;;;;;;;11.80;99.90;;;;;;5075391;28;20284;-76
2023/05/10 05:03:33;;;;;;;;;;;11.80;99.90;;;;;;5058026;28;19925;-77
2023/05/10 05:05:59;;;;;;;;;;;11.90;99.90;;;;;;5055482;28;19932;-79
2023/05/10 05:08:25;;;;;;;;;;;11.80;99.90;;;;;;5055934;28;19936;-78
2023/05/10 05:10:50;;;;;;;;;;;11.80;99.90;;;;;;5054526;28;20300;-76
2023/05/10 05:13:16;;;;;;;;;;;11.80;99.90;;;;;;5056321;28;19975;-78
2023/05/10 05:15:42;;;;;;;;;;;11.80;99.90;;;;;;5055698;28;19971;-80
2023/05/10 05:18:07;;;;;;;;;;;11.80;99.90;;;;;;5055986;28;19935;-80
2023/05/10 05:20:34;;;;;;;;;;;11.80;99.90;;;;;;5055027;28;19998;-76
2023/05/10 05:23:00;;;;;;;;;;;11.80;99.90;;;;;;5055770;28;20709;-87
2023/05/10 05:25:25;;;;;;;;;;;11.80;99.90;;;;;;5054756;28;19979;-77
2023/05/10 05:27:51;;;;;;;;;;;11.90;99.90;;;;;;5054320;28;19925;-77
2023/05/10 05:30:16;;;;;;;;;;;11.90;99.90;;;;;;5054570;28;20047;-78
2023/05/10 05:32:42;;;;;;;;;;;11.90;99.90;;;;;;5061214;28;19990;-77
2023/05/10 05:35:10;;;;;;;;;;;11.90;99.90;;;;;;5074258;28;19928;-74
2023/05/10 05:37:37;;;;;;;;;;;11.90;99.90;;;;;;5074763;28;19935;-78
2023/05/10 05:40:03;;;;;;;;;;;11.90;99.90;;;;;;5074963;28;19936;-83
2023/05/10 05:42:28;;;;;;;;;;;11.90;99.90;;;;;;5074835;28;20015;-81
2023/05/10 05:44:54;;;;;;;;;;;11.90;99.90;;;;;;5074149;28;19931;-80
2023/05/10 05:47:22;;;;;;;;;;;12.00;99.90;;;;;;5072319;28;19952;-80
2023/05/10 05:49:51;;;;;;;;;;;12.00;99.90;;;;;;5073693;28;20015;-81
2023/05/10 05:52:17;;;;;;;;;;;12.10;99.90;;;;;;5074194;28;20019;-81
2023/05/10 05:54:43;;;;;;;;;;;12.10;99.90;;;;;;5072996;28;19968;-80
2023/05/10 05:57:08;;;;;;;;;;;12.10;99.90;;;;;;5073384;28;19966;-80
2023/05/10 05:59:34;;;;;;;;;;;12.10;99.90;;;;;;5083716;28;19977;-80
2023/05/10 06:02:00;;;;;;;;;;;12.10;99.90;;;;;;5089812;28;20003;-80
2023/05/10 06:04:25;;;;;;;;;;;12.20;99.90;;;;;;5070453;28;19935;-80
2023/05/10 06:06:51;;;;;;;;;;;12.10;99.90;;;;;;5067796;28;19929;-79
2023/05/10 06:09:16;;;;;;;;;;;12.10;99.90;;;;;;5069069;28;19925;-81
2023/05/10 06:11:42;;;;;;;;;;;12.10;99.90;;;;;;5062200;28;19929;-81
2023/05/10 06:14:08;;;;;;;;;;;12.10;99.90;;;;;;5082736;28;19928;-80
2023/05/10 06:16:34;;;;;;;;;;;12.20;99.90;;;;;;5084176;28;19972;-80
2023/05/10 06:18:59;;;;;;;;;;;12.20;99.90;;;;;;5089441;28;19966;-80
2023/05/10 06:21:25;;;;;;;;;;;12.10;99.90;;;;;;5081290;28;19939;-80
2023/05/10 06:23:50;;;;;;;;;;;12.20;99.90;;;;;;5079137;28;19924;-81
2023/05/10 06:26:16;;;;;;;;;;;12.20;99.90;;;;;;5079161;28;19931;-80
2023/05/10 06:28:42;;;;;;;;;;;12.20;99.90;;;;;;5073932;28;19932;-81
2023/05/10 06:31:07;;;;;;;;;;;12.30;99.90;;;;;;5076612;28;19985;-80
2023/05/10 06:33:33;;;;;;;;;;;12.30;99.90;;;;;;5076106;28;19924;-81
2023/05/10 06:35:59;;;;;;;;;;;12.40;99.90;;;;;;5069709;28;19931;-81
2023/05/10 06:38:24;;;;;;;;;;;12.50;99.90;;;;;;5053927;28;19968;-81
2023/05/10 06:40:50;;;;;;;;;;;12.50;99.90;;;;;;5055276;28;19960;-81
2023/05/10 06:43:16;;;;;;;;;;;12.50;99.90;;;;;;5054253;28;19925;-80
2023/05/10 06:45:41;;;;;;;;;;;12.50;99.90;;;;;;5059231;28;20346;-81
2023/05/10 06:48:07;;;;;;;;;;;12.70;99.90;;;;;;5057983;28;20378;-80
2023/05/10 06:50:33;;;;;;;;;;;12.60;99.90;;;;;;5058634;28;20406;-80
2023/05/10 06:52:58;;;;;;;;;;;12.60;99.90;;;;;;5065393;28;19924;-82
2023/05/10 06:55:36;;;;;;;;;;;12.60;99.90;;;;;;5075547;28;19925;-82
2023/05/10 06:58:02;;;;;;;;;;;12.70;99.90;;;;;;5073908;28;19946;-81
2023/05/10 07:00:27;;;;;;;;;;;12.50;99.90;;;;;;5075037;28;20379;-80
2023/05/10 07:02:53;;;;;;;;;;;12.70;99.90;;;;;;5073630;28;19959;-82
2023/05/10 07:05:19;;;;;;;;;;;12.80;99.90;;;;;;5075315;28;19978;-81
2023/05/10 07:07:45;;;;;;;;;;;12.70;99.90;;;;;;5074780;28;19954;-80
2023/05/10 07:10:10;;;;;;;;;;;12.80;99.90;;;;;;5074130;28;19931;-79
2023/05/10 07:12:36;;;;;;;;;;;12.80;99.90;;;;;;5074163;28;20288;-80
2023/05/10 07:15:04;;;;;;;;;;;12.90;99.90;;;;;;5073430;28;19928;-80
2023/05/10 07:17:30;;;;;;;;;;;12.80;99.90;;;;;;5073550;28;19930;-80
2023/05/10 07:19:56;;;;;;;;;;;12.70;99.90;;;;;;5072836;28;19953;-81
2023/05/10 07:22:21;;;;;;;;;;;12.90;99.90;;;;;;5073373;28;19931;-81
2023/05/10 07:24:47;;;;;;;;;;;12.80;99.90;;;;;;5056555;28;20369;-79
2023/05/10 07:27:13;;;;;;;;;;;12.80;99.90;;;;;;5072088;28;19974;-79
2023/05/10 07:29:38;;;;;;;;;;;13.00;99.90;;;;;;5071592;28;20355;-79
2023/05/10 07:32:04;;;;;;;;;;;12.90;99.90;;;;;;5071832;28;19970;-80
2023/05/10 07:34:31;;;;;;;;;;;13.00;99.90;;;;;;5072881;28;19970;-79
2023/05/10 07:36:58;;;;;;;;;;;13.00;99.90;;;;;;5073806;28;19971;-79
2023/05/10 07:39:24;;;;;;;;;;;13.10;99.90;;;;;;5071453;28;19960;-79
2023/05/10 07:41:50;;;;;;;;;;;13.20;99.90;;;;;;5072291;28;19925;-79
2023/05/10 07:44:18;;;;;;;;;;;13.20;99.90;;;;;;5072908;28;19931;-80
2023/05/10 07:46:43;;;;;;;;;;;13.30;99.90;;;;;;5073345;28;19924;-81
2023/05/10 07:49:09;;;;;;;;;;;13.40;99.90;;;;;;5072312;28;19973;-80
2023/05/10 07:51:35;;;;;;;;;;;13.50;99.90;;;;;;5074042;28;20398;-80
2023/05/10 07:54:02;;;;;;;;;;;13.50;99.90;;;;;;5072198;28;19929;-79
2023/05/10 07:56:32;;;;;;;;;;;13.50;99.90;;;;;;5072456;28;19928;-79
2023/05/10 07:59:01;;;;;;;;;;;13.60;99.90;;;;;;5072244;28;19994;-79
2023/05/10 08:01:26;;;;;;;;;;;13.60;99.90;;;;;;5073435;28;19932;-79
2023/05/10 08:03:53;;;;;;;;;;;14.00;99.90;;;;;;5073486;28;19928;-79
2023/05/10 08:06:19;;;;;;;;;;;13.60;99.90;;;;;;5071998;28;19924;-79
2023/05/10 08:08:50;;;;;;;;;;;13.60;99.90;;;;;;5073538;28;19936;-79
2023/05/10 08:11:19;;;;;;;;;;;13.60;99.90;;;;;;5073217;28;19925;-78
2023/05/10 08:13:45;;;;;;;;;;;13.70;99.90;;;;;;5072593;28;19931;-79
2023/05/10 08:16:10;;;;;;;;;;;13.70;99.90;;;;;;5072090;28;19924;-78
2023/05/10 08:18:36;;;;;;;;;;;13.50;99.90;;;;;;5073028;28;20363;-78
2023/05/10 08:21:02;;;;;;;;;;;13.50;99.90;;;;;;5072217;28;19989;-78
2023/05/10 08:23:29;;;;;;;;;;;13.40;99.90;;;;;;5072900;28;19925;-78
2023/05/10 08:25:58;;;;;;;;;;;13.30;99.90;;;;;;5070978;28;19931;-78
2023/05/10 08:28:24;;;;;;;;;;;13.40;99.90;;;;;;5070864;28;19932;-78
2023/05/10 08:30:50;;;;;;;;;;;13.40;99.90;;;;;;5071223;28;19924;-77
2023/05/10 08:33:15;;;;;;;;;;;13.50;99.90;;;;;;5073186;28;19931;-78
2023/05/10 08:35:41;;;;;;;;;;;13.60;99.90;;;;;;5071065;28;20283;-77
2023/05/10 08:38:06;;;;;;;;;;;13.60;99.90;;;;;;5072817;28;19924;-78
2023/05/10 08:40:32;;;;;;;;;;;13.70;99.90;;;;;;5071558;28;19928;-78
2023/05/10 08:43:16;;;;;;;;;;;13.80;99.90;;;;;;5071759;28;19925;-78
2023/05/10 08:45:42;;;;;;;;;;;13.90;99.90;;;;;;5071248;28;19931;-77
2023/05/10 08:48:11;;;;;;;;;;;14.00;99.90;;;;;;5071025;28;20015;-77
2023/05/10 08:50:37;;;;;;;;;;;14.20;99.90;;;;;;5071967;28;19987;-77
2023/05/10 08:53:09;;;;;;;;;;;14.20;99.90;;;;;;5072502;28;19925;-77
2023/05/10 08:55:37;;;;;;;;;;;14.20;99.90;;;;;;5072090;28;20015;-78
2023/05/10 08:58:03;;;;;;;;;;;14.30;99.90;;;;;;5071344;28;19932;-78
2023/05/10 09:00:29;;;;;;;;;;;14.30;99.90;;;;;;5071356;28;20011;-77
2023/05/10 09:02:55;;;;;;;;;;;14.50;99.90;;;;;;5071763;28;20003;-78
2023/05/10 09:05:21;;;;;;;;;;;14.60;99.90;;;;;;5071077;28;20336;-76
2023/05/10 09:07:46;;;;;;;;;;;14.70;99.90;;;;;;5072931;28;19963;-77
2023/05/10 09:10:13;;;;;;;;;;;14.60;99.90;;;;;;5072095;28;20360;-77
2023/05/10 09:12:45;;;;;;;;;;;14.50;99.90;;;;;;5071605;28;19925;-81
2023/05/10 09:15:11;;;;;;;;;;;14.50;99.90;;;;;;5072185;28;19925;-77
2023/05/10 09:17:38;;;;;;;;;;;14.40;99.90;;;;;;5070694;28;19969;-78
2023/05/10 09:20:04;;;;;;;;;;;14.30;99.90;;;;;;5071884;28;19924;-76
2023/05/10 09:22:32;;;;;;;;;;;14.30;99.90;;;;;;5071119;28;20398;-76
2023/05/10 09:25:05;;;;;;;;;;;14.30;99.90;;;;;;5073211;28;19925;-75
2023/05/10 09:27:30;;;;;;;;;;;14.30;99.90;;;;;;5054321;28;20035;-75
2023/05/10 09:29:57;;;;;;;;;;;14.30;99.90;;;;;;5055325;28;20467;-74
2023/05/10 09:32:35;;;;;;;;;;;14.30;99.90;;;;;;5055123;28;19929;-74
2023/05/10 09:35:06;;;;;;;;;;;14.30;99.90;;;;;;5055572;28;19925;-74
2023/05/10 09:37:31;;;;;;;;;;;14.20;99.90;;;;;;5062016;28;20356;-78
2023/05/10 09:39:57;;;;;;;;;;;14.20;99.90;;;;;;5075356;28;19931;-79
2023/05/10 09:42:25;;;;;;;;;;;14.30;99.90;;;;;;5075361;28;20074;-77
2023/05/10 09:44:51;;;;;;;;;;;14.40;99.90;;;;;;5073528;28;19935;-78
2023/05/10 09:47:17;;;;;;;;;;;14.50;99.90;;;;;;5075700;28;19924;-77
2023/05/10 09:49:43;;;;;;;;;;;14.60;99.90;;;;;;5074656;28;20462;-79
2023/05/10 09:52:11;;;;;;;;;;;14.70;99.90;;;;;;5075158;28;20003;-81
2023/05/10 09:54:37;;;;;;;;;;;15.20;99.90;;;;;;5074438;28;19924;-81
2023/05/10 09:57:03;;;;;;;;;;;14.80;99.90;;;;;;5074638;28;19931;-81
2023/05/10 09:59:28;;;;;;;;;;;14.80;99.90;;;;;;5074665;28;19924;-82
2023/05/10 10:01:57;;;;;;;;;;;14.80;99.90;;;;;;5074210;28;19924;-81
2023/05/10 10:04:23;;;;;;;;;;;14.80;99.90;;;;;;5074100;28;19967;-76
2023/05/10 10:07:02;;;;;;;;;;;14.90;99.90;;;;;;5074353;28;20029;-76
2023/05/10 10:09:31;;;;;;;;;;;15.00;99.90;;;;;;5073318;28;19920;-78
2023/05/10 10:11:56;;;;;;;;;;;15.00;99.90;;;;;;5075058;28;19928;-76
2023/05/10 10:14:23;;;;;;;;;;;15.10;99.90;;;;;;5072927;28;19927;-76
2023/05/10 10:16:49;;;;;;;;;;;15.20;99.90;;;;;;5073519;28;19929;-74
2023/05/10 10:19:15;;;;;;;;;;;15.30;99.90;;;;;;5073890;28;19970;-76
2023/05/10 10:21:40;;;;;;;;;;;15.60;99.90;;;;;;5073072;28;19924;-77
2023/05/10 10:24:06;;;;;;;;;;;15.90;99.90;;;;;;5072452;28;19975;-76
2023/05/10 10:26:36;;;;;;;;;;;16.10;99.90;;;;;;5073596;28;19924;-76
2023/05/10 10:29:10;;;;;;;;;;;16.20;99.90;;;;;;5073783;28;19924;-76
2023/05/10 10:31:36;;;;;;;;;;;16.50;99.90;;;;;;5074542;28;19924;-75
2023/05/10 10:34:07;;;;;;;;;;;16.70;99.90;;;;;;5073963;28;19974;-75
2023/05/10 10:36:39;;;;;;;;;;;16.80;99.90;;;;;;5074967;28;20019;-76
2023/05/10 10:39:08;;;;;;;;;;;17.00;99.90;;;;;;5074395;28;19932;-79
2023/05/10 10:41:35;;;;;;;;;;;17.10;99.90;;;;;;5077736;28;19932;-78
2023/05/10 10:44:23;;;;;;;;;;;17.20;99.90;;;;;;5079501;28;19925;-78
2023/05/10 10:47:24;;;;;;;;;;;17.40;99.90;;;;;;5076208;28;19928;-77
2023/05/10 10:49:49;;;;;;;;;;;17.70;99.90;;;;;;5072730;28;20018;-77
2023/05/10 10:52:15;;;;;;;;;;;17.70;99.90;;;;;;5074730;28;19968;-78
2023/05/10 10:54:41;;;;;;;;;;;17.80;99.90;;;;;;5076875;28;19924;-77
2023/05/10 10:57:14;;;;;;;;;;;17.70;99.90;;;;;;5072040;28;20363;-77
2023/05/10 10:59:48;;;;;;;;;;;17.60;99.90;;;;;;5074426;28;19929;-77
2023/05/10 11:02:32;;;;;;;;;;;17.50;99.90;;;;;;5073740;28;19977;-77
2023/05/10 11:04:58;;;;;;;;;;;17.50;99.90;;;;;;5073378;28;20387;-77
2023/05/10 11:07:24;;;;;;;;;;;17.50;99.90;;;;;;5074186;28;19932;-75
2023/05/10 11:09:50;;;;;;;;;;;17.60;99.90;;;;;;5073497;28;19925;-75
2023/05/10 11:12:15;;;;;;;;;;;17.60;99.90;;;;;;5072716;28;19927;-74
2023/05/10 11:14:41;;;;;;;;;;;17.70;99.90;;;;;;5073911;28;19932;-75
2023/05/10 11:17:23;;;;;;;;;;;17.80;99.90;;;;;;5071730;28;19977;-77
2023/05/10 11:20:08;;;;;;;;;;;18.00;99.90;;;;;;5073590;28;19924;-78
2023/05/10 11:22:49;;;;;;;;;;;17.90;99.90;;;;;;5073860;28;19925;-78
2023/05/10 11:25:15;;;;;;;;;;;17.80;99.90;;;;;;5071439;28;19925;-75
2023/05/10 11:27:41;;;;;;;;;;;17.70;99.90;;;;;;5071895;28;19932;-79
2023/05/10 11:30:09;;;;;;;;;;;17.50;99.90;;;;;;5071681;28;19924;-75
2023/05/10 11:32:36;;;;;;;;;;;17.20;99.90;;;;;;5072450;28;19963;-75
2023/05/10 11:35:08;;;;;;;;;;;17.10;99.90;;;;;;5073301;28;19979;-75
2023/05/10 11:37:34;;;;;;;;;;;17.20;99.90;;;;;;5072952;28;19924;-80
2023/05/10 11:40:00;;;;;;;;;;;17.40;99.90;;;;;;5072770;28;19924;-76
2023/05/10 11:42:31;;;;;;;;;;;17.40;99.90;;;;;;5073720;28;20019;-73
2023/05/10 11:44:57;;;;;;;;;;;17.50;99.90;;;;;;5072329;28;19925;-73
2023/05/10 11:47:24;;;;;;;;;;;17.60;99.90;;;;;;5072975;28;19932;-76
2023/05/10 11:49:50;;;;;;;;;;;17.70;99.90;;;;;;5072162;28;19947;-74
2023/05/10 11:52:18;;;;;;;;;;;18.00;99.90;;;;;;5070546;28;20395;-73
2023/05/10 11:54:53;;;;;;;;;;;18.30;99.90;;;;;;5052204;28;20303;-75
2023/05/10 11:57:26;;;;;;;;;;;18.70;99.90;;;;;;5053274;28;19932;-74
2023/05/10 11:59:56;;;;;;;;;;;19.00;99.90;;;;;;5052146;28;19935;-75
2023/05/10 12:02:21;;;;;;;;;;;19.30;99.90;;;;;;5053075;28;19924;-75
2023/05/10 12:04:47;;;;;;;;;;;19.30;99.90;;;;;;5072620;28;19931;-76
2023/05/10 12:07:13;;;;;;;;;;;19.60;99.90;;;;;;5072951;28;20035;-77
2023/05/10 12:09:45;;;;;;;;;;;19.80;99.90;;;;;;5073659;28;20018;-77
2023/05/10 12:12:15;;;;;;;;;;;19.80;99.90;;;;;;5073266;28;20353;-77
2023/05/10 12:14:40;;;;;;;;;;;19.60;99.90;;;;;;5071989;28;19924;-77
2023/05/10 12:17:11;;;;;;;;;;;19.80;99.90;;;;;;5072124;28;19924;-77
2023/05/10 12:19:39;;;;;;;;;;;19.90;99.90;;;;;;5071431;28;19989;-75
2023/05/10 12:22:08;;;;;;;;;;;20.60;99.90;;;;;;5052845;28;19947;-75
2023/05/10 12:24:34;;;;;;;;;;;21.00;99.90;;;;;;5061651;28;19974;-75
2023/05/10 12:27:04;;;;;;;;;;;21.20;99.90;;;;;;5071687;28;20023;-74
2023/05/10 12:29:30;;;;;;;;;;;21.10;99.90;;;;;;5071049;28;19971;-74
2023/05/10 12:31:56;;;;;;;;;;;21.40;99.90;;;;;;5072039;28;19924;-75
2023/05/10 12:34:22;;;;;;;;;;;21.40;99.90;;;;;;5069412;28;19978;-75
2023/05/10 12:36:50;;;;;;;;;;;21.50;99.90;;;;;;5071366;28;19924;-74
2023/05/10 12:39:15;;;;;;;;;;;21.30;99.90;;;;;;5071566;28;19924;-78
2023/05/10 12:41:41;;;;;;;;;;;20.90;99.90;;;;;;5072364;28;20291;-81
2023/05/10 12:44:06;;;;;;;;;;;20.90;99.90;;;;;;5071908;28;20194;-77
2023/05/10 12:46:32;;;;;;;;;;;20.90;99.90;;;;;;5073331;28;19982;-80
2023/05/10 12:48:57;;;;;;;;;;;21.30;99.90;;;;;;5072680;28;20372;-80
2023/05/10 12:51:23;;;;;;;;;;;21.70;99.90;;;;;;5073453;28;19924;-80
2023/05/10 12:53:49;;;;;;;;;;;21.60;99.90;;;;;;5074083;28;19930;-81
2023/05/10 12:56:17;;;;;;;;;;;21.70;99.90;;;;;;5071550;28;19974;-79
2023/05/10 12:58:47;;;;;;;;;;;21.80;99.90;;;;;;5077429;28;19933;-79
2023/05/10 13:01:14;;;;;;;;;;;21.80;99.90;;;;;;5075357;28;19928;-78
2023/05/10 13:03:39;;;;;;;;;;;21.70;99.90;;;;;;5073750;28;19924;-78
2023/05/10 13:06:06;;;;;;;;;;;21.20;99.90;;;;;;5074495;28;19924;-78
2023/05/10 13:08:33;;;;;;;;;;;21.20;99.90;;;;;;5074313;28;19925;-78
2023/05/10 13:11:02;;;;;;;;;;;21.30;99.90;;;;;;5074836;28;19975;-78
2023/05/10 13:13:27;;;;;;;;;;;21.30;99.90;;;;;;5074321;28;19968;-75
2023/05/10 13:15:53;;;;;;;;;;;21.30;99.90;;;;;;5055910;28;20011;-78
2023/05/10 13:18:21;;;;;;;;;;;21.20;99.90;;;;;;5060150;28;20283;-78
2023/05/10 13:20:47;;;;;;;;;;;21.10;99.90;;;;;;5093513;28;20381;-77
2023/05/10 13:23:12;;;;;;;;;;;21.20;99.90;;;;;;5189176;22;20035;-74
2023/05/10 13:25:39;;;;;;;;;;;21.10;99.90;;;;;;5058155;28;19924;-72
2023/05/10 13:28:05;;;;;;;;;;;20.80;99.90;;;;;;5057278;28;19979;-74
2023/05/10 13:30:30;;;;;;;;;;;20.60;99.90;;;;;;5056018;28;20307;-77
2023/05/10 13:32:56;;;;;;;;;;;20.40;99.90;;;;;;5056964;28;19936;-77
2023/05/10 13:35:23;;;;;;;;;;;19.90;99.90;;;;;;5056864;28;19928;-78
2023/05/10 13:37:49;;;;;;;;;;;20.00;99.90;;;;;;5056419;28;20308;-79
2023/05/10 13:40:17;;;;;;;;;;;20.40;99.90;;;;;;5058454;28;19928;-79
2023/05/10 13:42:43;;;;;;;;;;;20.80;99.90;;;;;;5056314;28;19928;-80
2023/05/10 13:45:11;;;;;;;;;;;20.90;99.90;;;;;;5058173;28;20316;-75
2023/05/10 13:47:37;;;;;;;;;;;20.90;99.90;;;;;;5074955;28;19931;-76
2023/05/10 13:50:05;;;;;;;;;;;21.00;99.90;;;;;;5076829;28;19924;-77
2023/05/10 13:52:35;;;;;;;;;;;21.60;99.90;;;;;;5056369;28;20004;-75
2023/05/10 13:55:00;;;;;;;;;;;21.00;99.90;;;;;;5051643;28;20020;-75
2023/05/10 13:57:26;;;;;;;;;;;20.80;99.90;;;;;;5056380;28;19928;-75
2023/05/10 13:59:52;;;;;;;;;;;20.60;99.90;;;;;;5056743;28;20397;-76
2023/05/10 14:02:19;;;;;;;;;;;20.50;99.90;;;;;;5057637;28;20131;-76
2023/05/10 14:12:51;;;;;;;;;;;20.50;99.90;;;;;;5359834;22;19925;-73
2023/05/10 14:15:17;;;;;;;;;;;20.40;99.90;;;;;;5034377;28;19925;-76
2023/05/10 14:17:42;;;;;;;;;;;20.10;99.90;;;;;;5018236;28;19925;-78
2023/05/10 14:20:08;;;;;;;;;;;20.20;99.90;;;;;;5040725;28;19989;-78
2023/05/10 14:22:36;;;;;;;;;;;19.90;99.90;;;;;;5021397;28;20063;-74
2023/05/10 14:25:07;;;;;;;;;;;19.60;99.90;;;;;;5034393;28;19983;-77